Wetterstation Vordersexau
Wetterdaten: Woche 04.01.16 - 10.01.16 (KW1)
Datum Zeit Temp. A. Feuchte A. Luftdruck Regen Wind Richtung Taupunkt Windchill Windben
04.01.2016 00:00 4,8 C 84 % 992,1 hPa 0,8 l/m 0,0 km/h S 2,3 C 4,8 C 0,0 km/h
04.01.2016 01:00 4,5 C 86 % 991,3 hPa 1,7 l/m 0,0 km/h N-NW 2,4 C 4,5 C 0,0 km/h
04.01.2016 02:00 4,7 C 87 % 991,1 hPa 0,0 l/m 0,0 km/h W 2,7 C 4,7 C 0,0 km/h
04.01.2016 03:00 5,8 C 87 % 991,1 hPa 0,4 l/m 10,4 km/h W 3,8 C 2,7 C 5,8 km/h
04.01.2016 04:00 5,9 C 88 % 990,6 hPa 0,4 l/m 20,7 km/h W 4,1 C -2,3 C 11,5 km/h
04.01.2016 05:00 6,9 C 85 % 990,7 hPa 0,0 l/m 17,5 km/h S-SW 4,6 C 0,3 C 9,7 km/h
04.01.2016 06:00 7,3 C 85 % 990,9 hPa 0,0 l/m 34,3 km/h W 4,9 C -4,1 C 19,1 km/h
04.01.2016 07:00 5,9 C 88 % 991,4 hPa 0,8 l/m 14,9 km/h W-SW 4,1 C 0,2 C 8,3 km/h
04.01.2016 08:00 5,6 C 89 % 992,1 hPa 1,2 l/m 0,0 km/h W-SW 3,9 C 5,6 C 0,0 km/h
04.01.2016 09:00 6,8 C 87 % 992,4 hPa 0,0 l/m 20,7 km/h W 4,8 C -1,1 C 11,5 km/h
04.01.2016 10:00 6,5 C 87 % 992,9 hPa 0,0 l/m 20,1 km/h S-SW 4,5 C -1,3 C 11,2 km/h
04.01.2016 11:00 8,9 C 78 % 992,8 hPa 0,0 l/m 8,4 km/h W-SW 5,3 C 7,4 C 4,7 km/h
04.01.2016 12:00 7,7 C 81 % 992,6 hPa 0,0 l/m 29,8 km/h W-SW 4,7 C -2,5 C 16,6 km/h
04.01.2016 13:00 8,1 C 82 % 992,5 hPa 0,0 l/m 31,1 km/h W 5,2 C -2,3 C 17,3 km/h
04.01.2016 14:00 8,8 C 80 % 992,3 hPa 0,0 l/m 19,4 km/h SW 5,5 C 1,9 C 10,8 km/h
04.01.2016 15:00 8,3 C 79 % 992,3 hPa 0,0 l/m 24,0 km/h S-SW 4,9 C -0,2 C 13,3 km/h
04.01.2016 16:00 7,3 C 81 % 992,7 hPa 0,0 l/m 15,6 km/h W 4,3 C 1,6 C 8,6 km/h
04.01.2016 17:00 5,9 C 84 % 992,9 hPa 0,0 l/m 0,0 km/h W-SW 3,4 C 5,9 C 0,0 km/h
04.01.2016 18:00 6,3 C 83 % 993,1 hPa 0,0 l/m 15,6 km/h SW 3,6 C 0,4 C 8,6 km/h
04.01.2016 19:00 6,2 C 83 % 993,5 hPa 0,0 l/m 23,3 km/h W-SW 3,5 C -2,8 C 13,0 km/h
04.01.2016 20:00 6,7 C 81 % 993,3 hPa 0,0 l/m 0,0 km/h W-SW 3,7 C 6,7 C 0,0 km/h
04.01.2016 21:00 6,5 C 80 % 993,1 hPa 0,0 l/m 0,0 km/h W-SW 3,3 C 6,5 C 0,0 km/h
04.01.2016 22:00 6,4 C 80 % 993,2 hPa 0,0 l/m 0,0 km/h S-SO 3,2 C 6,4 C 0,0 km/h
04.01.2016 23:00 4,1 C 83 % 993,0 hPa 0,0 l/m 0,0 km/h W-SW 1,5 C 4,1 C 0,0 km/h
05.01.2016 00:00 4,5 C 86 % 992,8 hPa 0,4 l/m 0,0 km/h W-SW 2,4 C 4,5 C 0,0 km/h
05.01.2016 01:00 4,7 C 87 % 992,2 hPa 0,0 l/m 0,0 km/h S-SO 2,7 C 4,7 C 0,0 km/h
05.01.2016 02:00 5,0 C 88 % 992,4 hPa 0,0 l/m 0,0 km/h S-SO 3,2 C 5,0 C 0,0 km/h
05.01.2016 03:00 5,6 C 89 % 992,1 hPa 0,8 l/m 0,0 km/h W 3,9 C 5,6 C 0,0 km/h
05.01.2016 04:00 6,2 C 88 % 992,2 hPa 0,0 l/m 3,2 km/h S 4,4 C 6,2 C 1,8 km/h
05.01.2016 05:00 4,8 C 88 % 992,6 hPa 0,0 l/m 0,0 km/h S 3,0 C 4,8 C 0,0 km/h
05.01.2016 06:00 4,4 C 89 % 992,9 hPa 0,0 l/m 0,0 km/h W-SW 2,7 C 4,4 C 0,0 km/h
05.01.2016 07:00 4,9 C 88 % 993,6 hPa 0,4 l/m 16,2 km/h S 3,1 C -1,6 C 9,0 km/h
05.01.2016 08:00 4,2 C 89 % 993,8 hPa 0,0 l/m 1,9 km/h W-SW 2,6 C 4,2 C 1,1 km/h
05.01.2016 09:00 6,3 C 87 % 994,4 hPa 0,0 l/m 11,0 km/h SW 4,3 C 2,9 C 6,1 km/h
05.01.2016 10:00 6,9 C 82 % 994,9 hPa 0,0 l/m 14,9 km/h W 4,0 C 1,4 C 8,3 km/h
05.01.2016 11:00 7,4 C 80 % 995,0 hPa 0,0 l/m 9,1 km/h S-SW 4,2 C 5,3 C 5,0 km/h
05.01.2016 12:00 7,9 C 78 % 994,7 hPa 0,0 l/m 22,7 km/h SW 4,3 C -0,3 C 12,6 km/h
05.01.2016 13:00 7,9 C 78 % 994,5 hPa 0,0 l/m 20,1 km/h SW 4,3 C 0,5 C 11,2 km/h
05.01.2016 14:00 8,8 C 75 % 994,1 hPa 0,0 l/m 11,7 km/h S-SW 4,6 C 5,3 C 6,5 km/h
05.01.2016 15:00 8,9 C 76 % 994,4 hPa 0,0 l/m 13,6 km/h S-SW 4,9 C 4,4 C 7,6 km/h
05.01.2016 16:00 7,6 C 78 % 994,8 hPa 0,0 l/m 14,3 km/h S-SW 4,0 C 2,6 C 7,9 km/h
05.01.2016 17:00 7,3 C 79 % 995,2 hPa 0,0 l/m 3,9 km/h W-SW 3,9 C 7,3 C 2,2 km/h
05.01.2016 18:00 7,3 C 77 % 995,6 hPa 0,0 l/m 0,0 km/h S 3,5 C 7,3 C 0,0 km/h
05.01.2016 19:00 6,9 C 78 % 995,7 hPa 0,0 l/m 0,0 km/h W 3,3 C 6,9 C 0,0 km/h
05.01.2016 20:00 6,6 C 80 % 996,4 hPa 0,0 l/m 0,6 km/h S 3,4 C 6,6 C 0,4 km/h
05.01.2016 21:00 6,4 C 81 % 996,7 hPa 0,0 l/m 10,4 km/h S-SW 3,4 C 3,4 C 5,8 km/h
05.01.2016 22:00 6,3 C 81 % 996,4 hPa 0,0 l/m 2,6 km/h S-SW 3,3 C 6,3 C 1,4 km/h
05.01.2016 23:00 6,3 C 80 % 996,7 hPa 0,0 l/m 9,1 km/h SW 3,1 C 4,1 C 5,0 km/h
06.01.2016 00:00 6,4 C 79 % 996,8 hPa 0,0 l/m 9,7 km/h S-SW 3,0 C 3,8 C 5,4 km/h
06.01.2016 01:00 6,7 C 78 % 996,7 hPa 0,0 l/m 4,5 km/h S-SW 3,1 C 6,7 C 2,5 km/h
06.01.2016 02:00 6,2 C 79 % 997,0 hPa 0,0 l/m 0,0 km/h SW 2,8 C 6,2 C 0,0 km/h
06.01.2016 03:00 6,8 C 77 % 997,1 hPa 0,0 l/m 11,0 km/h W-SW 3,1 C 3,4 C 6,1 km/h
06.01.2016 04:00 6,3 C 78 % 996,8 hPa 0,0 l/m 9,1 km/h SW 2,8 C 4,1 C 5,0 km/h
06.01.2016 05:00 6,3 C 78 % 996,9 hPa 0,0 l/m 9,1 km/h W-SW 2,8 C 4,1 C 5,0 km/h
06.01.2016 06:00 5,5 C 83 % 997,2 hPa 0,0 l/m 0,0 km/h SO 2,8 C 5,5 C 0,0 km/h
06.01.2016 07:00 4,9 C 86 % 996,9 hPa 0,4 l/m 0,6 km/h SO 2,8 C 4,9 C 0,4 km/h
06.01.2016 08:00 4,6 C 87 % 997,5 hPa 0,8 l/m 1,9 km/h S-SO 2,6 C 4,6 C 1,1 km/h
06.01.2016 09:00 4,5 C 88 % 997,8 hPa 1,2 l/m 0,0 km/h SW 2,7 C 4,5 C 0,0 km/h
06.01.2016 10:00 3,9 C 88 % 998,6 hPa 2,9 l/m 21,4 km/h SO 2,1 C -5,2 C 11,9 km/h
06.01.2016 11:00 3,6 C 88 % 998,6 hPa 1,7 l/m 2,6 km/h SO 1,8 C 3,6 C 1,4 km/h
06.01.2016 12:00 4,7 C 88 % 998,2 hPa 0,8 l/m 0,0 km/h O-SO 2,9 C 4,7 C 0,0 km/h
06.01.2016 13:00 5,3 C 89 % 998,4 hPa 0,4 l/m 0,0 km/h SO 3,6 C 5,3 C 0,0 km/h
06.01.2016 14:00 6,5 C 88 % 998,3 hPa 0,4 l/m 0,0 km/h O-SO 4,7 C 6,5 C 0,0 km/h
06.01.2016 15:00 6,6 C 87 % 998,7 hPa 0,0 l/m 0,0 km/h SO 4,6 C 6,6 C 0,0 km/h
06.01.2016 16:00 5,2 C 88 % 998,7 hPa 0,0 l/m 0,0 km/h O-SO 3,4 C 5,2 C 0,0 km/h
06.01.2016 17:00 4,4 C 89 % 998,8 hPa 0,0 l/m 0,0 km/h O-SO 2,7 C 4,4 C 0,0 km/h
06.01.2016 18:00 4,6 C 89 % 999,1 hPa 0,0 l/m 0,0 km/h S-SW 2,9 C 4,6 C 0,0 km/h
06.01.2016 19:00 4,6 C 88 % 999,8 hPa 0,4 l/m 9,7 km/h S-SO 2,8 C 1,8 C 5,4 km/h
06.01.2016 20:00 4,6 C 89 % 1000,2 hPa 0,4 l/m 9,7 km/h SO 2,9 C 1,8 C 5,4 km/h
06.01.2016 21:00 4,6 C 89 % 1000,0 hPa 0,0 l/m 0,0 km/h SO 2,9 C 4,6 C 0,0 km/h
06.01.2016 22:00 4,7 C 89 % 999,9 hPa 0,0 l/m 0,0 km/h SW 3,0 C 4,7 C 0,0 km/h
06.01.2016 23:00 5,0 C 89 % 1000,2 hPa 0,0 l/m 0,0 km/h S 3,3 C 5,0 C 0,0 km/h
07.01.2016 00:00 5,3 C 88 % 1000,3 hPa 0,0 l/m 0,0 km/h S 3,5 C 5,3 C 0,0 km/h
07.01.2016 01:00 4,8 C 89 % 1000,0 hPa 0,0 l/m 0,0 km/h O-NO 3,1 C 4,8 C 0,0 km/h
07.01.2016 02:00 4,6 C 88 % 1000,2 hPa 0,0 l/m 0,0 km/h SO 2,8 C 4,6 C 0,0 km/h
07.01.2016 03:00 4,3 C 88 % 1000,0 hPa 0,0 l/m 0,0 km/h N-NO 2,5 C 4,3 C 0,0 km/h
07.01.2016 04:00 3,8 C 89 % 998,9 hPa 0,0 l/m 0,0 km/h NO 2,2 C 3,8 C 0,0 km/h
07.01.2016 05:00 3,7 C 88 % 998,4 hPa 0,0 l/m 0,0 km/h O-SO 1,9 C 3,7 C 0,0 km/h
07.01.2016 06:00 3,8 C 88 % 997,4 hPa 0,0 l/m 0,0 km/h SO 2,0 C 3,8 C 0,0 km/h
07.01.2016 07:00 3,2 C 88 % 997,3 hPa 0,0 l/m 0,0 km/h O-SO 1,4 C 3,2 C 0,0 km/h
07.01.2016 08:00 2,8 C 88 % 996,4 hPa 0,0 l/m 0,0 km/h O-SO 1,0 C 2,8 C 0,0 km/h
07.01.2016 09:00 6,2 C 89 % 995,7 hPa 0,4 l/m 0,0 km/h SO 4,5 C 6,2 C 0,0 km/h
07.01.2016 10:00 6,3 C 85 % 993,9 hPa 0,0 l/m 24,0 km/h S-SO 4,0 C -2,9 C 13,3 km/h
07.01.2016 11:00 7,4 C 76 % 993,0 hPa 0,0 l/m 11,0 km/h S-SO 3,5 C 4,1 C 6,1 km/h
07.01.2016 12:00 5,9 C 83 % 992,1 hPa 0,4 l/m 13,0 km/h S-SO 3,2 C 1,2 C 7,2 km/h
07.01.2016 13:00 5,4 C 86 % 991,3 hPa 2,1 l/m 7,1 km/h S 3,3 C 4,8 C 4,0 km/h
07.01.2016 14:00 5,6 C 88 % 991,8 hPa 1,7 l/m 0,6 km/h W-NW 3,8 C 5,6 C 0,4 km/h
07.01.2016 15:00 6,7 C 88 % 993,3 hPa 0,0 l/m 0,0 km/h W-SW 4,9 C 6,7 C 0,0 km/h
07.01.2016 16:00 8,6 C 87 % 995,0 hPa 0,0 l/m 18,8 km/h W-SW 6,6 C 1,9 C 10,4 km/h
07.01.2016 17:00 8,7 C 86 % 996,3 hPa 0,0 l/m 15,6 km/h W 6,5 C 3,3 C 8,6 km/h
07.01.2016 18:00 8,6 C 86 % 997,5 hPa 0,0 l/m 14,3 km/h W 6,4 C 3,8 C 7,9 km/h
07.01.2016 19:00 7,9 C 88 % 998,7 hPa 0,0 l/m 7,8 km/h W-NW 6,0 C 6,8 C 4,3 km/h
07.01.2016 20:00 7,1 C 85 % 1000,1 hPa 0,0 l/m 12,3 km/h W 4,8 C 3,0 C 6,8 km/h
07.01.2016 21:00 5,8 C 84 % 1001,1 hPa 0,0 l/m 3,2 km/h S-SW 3,3 C 5,8 C 1,8 km/h
07.01.2016 22:00 5,6 C 82 % 1002,0 hPa 0,0 l/m 18,8 km/h W-SW 2,8 C -1,9 C 10,4 km/h
07.01.2016 23:00 5,9 C 83 % 1002,8 hPa 0,0 l/m 11,0 km/h W 3,2 C 2,4 C 6,1 km/h
08.01.2016 00:00 6,9 C 81 % 1003,2 hPa 0,0 l/m 16,8 km/h W 3,9 C 0,6 C 9,4 km/h
08.01.2016 01:00 6,4 C 83 % 1004,0 hPa 0,0 l/m 20,1 km/h W-SW 3,7 C -1,4 C 11,2 km/h
08.01.2016 02:00 6,1 C 83 % 1004,1 hPa 0,0 l/m 12,3 km/h W 3,4 C 1,8 C 6,8 km/h
08.01.2016 03:00 6,5 C 82 % 1004,6 hPa 0,0 l/m 5,8 km/h W 3,7 C 6,5 C 3,2 km/h
08.01.2016 04:00 6,6 C 82 % 1004,5 hPa 0,0 l/m 14,3 km/h W-SW 3,8 C 1,4 C 7,9 km/h
08.01.2016 05:00 6,8 C 80 % 1005,2 hPa 0,0 l/m 0,0 km/h W 3,6 C 6,8 C 0,0 km/h
08.01.2016 06:00 5,6 C 82 % 1005,2 hPa 0,0 l/m 0,0 km/h N-NW 2,8 C 5,6 C 0,0 km/h
08.01.2016 07:00 3,4 C 85 % 1005,5 hPa 0,0 l/m 0,0 km/h N-NO 1,1 C 3,4 C 0,0 km/h
08.01.2016 08:00 2,1 C 87 % 1005,3 hPa 0,0 l/m 0,0 km/h N-NO 0,2 C 2,1 C 0,0 km/h
08.01.2016 09:00 3,5 C 88 % 1005,2 hPa 0,0 l/m 0,0 km/h O-NO 1,7 C 3,5 C 0,0 km/h
08.01.2016 10:00 5,9 C 88 % 1004,9 hPa 0,0 l/m 0,0 km/h SO 4,1 C 5,9 C 0,0 km/h
08.01.2016 11:00 5,6 C 88 % 1004,9 hPa 0,0 l/m 0,0 km/h SO 3,8 C 5,6 C 0,0 km/h
08.01.2016 12:00 7,1 C 87 % 1003,6 hPa 0,0 l/m 0,0 km/h SO 5,1 C 7,1 C 0,0 km/h
08.01.2016 13:00 7,2 C 87 % 1002,7 hPa 0,0 l/m 0,0 km/h SO 5,2 C 7,2 C 0,0 km/h
08.01.2016 14:00 7,9 C 86 % 1002,2 hPa 0,0 l/m 0,0 km/h SO 5,7 C 7,9 C 0,0 km/h
08.01.2016 15:00 7,1 C 86 % 1002,6 hPa 0,4 l/m 0,0 km/h SO 4,9 C 7,1 C 0,0 km/h
08.01.2016 16:00 5,9 C 87 % 1002,3 hPa 0,4 l/m 0,0 km/h SO 3,9 C 5,9 C 0,0 km/h
08.01.2016 17:00 5,4 C 88 % 1002,1 hPa 0,4 l/m 0,0 km/h SO 3,6 C 5,4 C 0,0 km/h
08.01.2016 18:00 5,2 C 88 % 1002,3 hPa 0,4 l/m 0,0 km/h SO 3,4 C 5,2 C 0,0 km/h
08.01.2016 19:00 4,9 C 88 % 1002,0 hPa 0,4 l/m 0,0 km/h SO 3,1 C 4,9 C 0,0 km/h
08.01.2016 20:00 5,0 C 88 % 1001,9 hPa 0,0 l/m 0,0 km/h SO 3,2 C 5,0 C 0,0 km/h
08.01.2016 21:00 4,9 C 88 % 1001,7 hPa 1,2 l/m 0,0 km/h SO 3,1 C 4,9 C 0,0 km/h
08.01.2016 22:00 4,9 C 88 % 1001,6 hPa 0,4 l/m 0,0 km/h SO 3,1 C 4,9 C 0,0 km/h
08.01.2016 23:00 5,1 C 88 % 1001,6 hPa 0,0 l/m 0,0 km/h SO 3,3 C 5,1 C 0,0 km/h
09.01.2016 00:00 5,0 C 88 % 1001,8 hPa 0,4 l/m 0,0 km/h SO 3,2 C 5,0 C 0,0 km/h
09.01.2016 01:00 5,0 C 88 % 1001,8 hPa 0,0 l/m 0,0 km/h SO 3,2 C 5,0 C 0,0 km/h
09.01.2016 02:00 4,8 C 88 % 1001,7 hPa 0,0 l/m 0,0 km/h SO 3,0 C 4,8 C 0,0 km/h
09.01.2016 03:00 4,9 C 88 % 1001,9 hPa 0,0 l/m 0,0 km/h SO 3,1 C 4,9 C 0,0 km/h
09.01.2016 04:00 5,1 C 88 % 1001,8 hPa 0,0 l/m 0,0 km/h SO 3,3 C 5,1 C 0,0 km/h
09.01.2016 05:00 5,1 C 88 % 1002,0 hPa 0,0 l/m 0,0 km/h SO 3,3 C 5,1 C 0,0 km/h
09.01.2016 06:00 5,1 C 88 % 1001,7 hPa 0,0 l/m 0,0 km/h SO 3,3 C 5,1 C 0,0 km/h
09.01.2016 07:00 5,2 C 87 % 1001,5 hPa 0,0 l/m 0,0 km/h SO 3,2 C 5,2 C 0,0 km/h
09.01.2016 08:00 5,3 C 87 % 1001,4 hPa 0,0 l/m 10,4 km/h SO 3,3 C 2,1 C 5,8 km/h
09.01.2016 09:00 5,6 C 87 % 1001,5 hPa 0,0 l/m 0,0 km/h SO 3,6 C 5,6 C 0,0 km/h
09.01.2016 10:00 6,2 C 86 % 1001,6 hPa 0,0 l/m 0,0 km/h SO 4,0 C 6,2 C 0,0 km/h
09.01.2016 11:00 6,5 C 86 % 1001,7 hPa 0,0 l/m 0,0 km/h SO 4,3 C 6,5 C 0,0 km/h
09.01.2016 12:00 6,9 C 86 % 1001,1 hPa 0,0 l/m 0,0 km/h SO 4,7 C 6,9 C 0,0 km/h
09.01.2016 13:00 7,4 C 87 % 1000,7 hPa 0,0 l/m 0,0 km/h SO 5,4 C 7,4 C 0,0 km/h
09.01.2016 14:00 7,8 C 88 % 1000,6 hPa 0,0 l/m 0,0 km/h NO 5,9 C 7,8 C 0,0 km/h
09.01.2016 15:00 8,8 C 88 % 1000,8 hPa 0,0 l/m 0,0 km/h S-SW 6,9 C 8,8 C 0,0 km/h
09.01.2016 16:00 9,1 C 89 % 1000,6 hPa 0,0 l/m 5,2 km/h S-SW 7,4 C 9,1 C 2,9 km/h
09.01.2016 17:00 8,9 C 88 % 1000,6 hPa 0,0 l/m 0,0 km/h NW 7,0 C 8,9 C 0,0 km/h
09.01.2016 18:00 7,1 C 89 % 1000,0 hPa 0,0 l/m 0,0 km/h NW 5,4 C 7,1 C 0,0 km/h
09.01.2016 19:00 5,2 C 89 % 999,6 hPa 0,0 l/m 0,0 km/h O-SO 3,5 C 5,2 C 0,0 km/h
09.01.2016 20:00 4,8 C 88 % 999,2 hPa 0,0 l/m 0,0 km/h O-SO 3,0 C 4,8 C 0,0 km/h
09.01.2016 21:00 4,9 C 87 % 998,8 hPa 0,0 l/m 0,0 km/h NO 2,9 C 4,9 C 0,0 km/h
09.01.2016 22:00 4,3 C 87 % 998,4 hPa 0,0 l/m 0,0 km/h SO 2,3 C 4,3 C 0,0 km/h
09.01.2016 23:00 3,9 C 86 % 997,8 hPa 0,0 l/m 0,0 km/h SO 1,8 C 3,9 C 0,0 km/h
10.01.2016 00:00 3,9 C 85 % 998,0 hPa 0,0 l/m 1,3 km/h O-SO 1,6 C 3,9 C 0,7 km/h
10.01.2016 01:00 3,3 C 84 % 997,2 hPa 0,0 l/m 0,0 km/h O-SO 0,9 C 3,3 C 0,0 km/h
10.01.2016 02:00 3,8 C 84 % 997,1 hPa 0,0 l/m 0,0 km/h NO 1,4 C 3,8 C 0,0 km/h
10.01.2016 03:00 4,3 C 84 % 996,5 hPa 0,0 l/m 0,0 km/h N-NO 1,8 C 4,3 C 0,0 km/h
10.01.2016 04:00 4,9 C 83 % 995,3 hPa 0,0 l/m 0,0 km/h W 2,3 C 4,9 C 0,0 km/h
10.01.2016 05:00 5,9 C 81 % 997,7 hPa 0,8 l/m 19,4 km/h SO 2,9 C -1,8 C 10,8 km/h
10.01.2016 06:00 6,9 C 87 % 996,1 hPa 0,4 l/m 22,0 km/h S 4,9 C -1,4 C 12,2 km/h
10.01.2016 07:00 6,3 C 88 % 997,2 hPa 0,0 l/m 11,0 km/h S-SW 4,5 C 2,9 C 6,1 km/h
10.01.2016 08:00 7,3 C 86 % 997,1 hPa 0,0 l/m 14,9 km/h W 5,1 C 1,9 C 8,3 km/h
10.01.2016 09:00 7,9 C 82 % 998,2 hPa 0,0 l/m 11,7 km/h W-SW 5,0 C 4,3 C 6,5 km/h
10.01.2016 10:00 8,7 C 77 % 997,8 hPa 0,0 l/m 8,4 km/h W-SW 4,9 C 7,2 C 4,7 km/h
10.01.2016 11:00 9,2 C 74 % 997,7 hPa 0,0 l/m 24,0 km/h S-SW 4,8 C 1,0 C 13,3 km/h
10.01.2016 12:00 9,6 C 74 % 996,2 hPa 0,0 l/m 3,9 km/h S 5,2 C 9,6 C 2,2 km/h
10.01.2016 13:00 10,1 C 69 % 995,7 hPa 0,0 l/m 22,7 km/h S-SW 4,7 C 2,6 C 12,6 km/h
10.01.2016 14:00 9,4 C 71 % 995,3 hPa 0,0 l/m 20,7 km/h S-SW 4,4 C 2,3 C 11,5 km/h
10.01.2016 15:00 7,8 C 80 % 995,0 hPa 0,4 l/m 0,0 km/h S-SO 4,6 C 7,8 C 0,0 km/h
10.01.2016 16:00 7,1 C 83 % 994,9 hPa 0,0 l/m 0,0 km/h S 4,4 C 7,1 C 0,0 km/h
10.01.2016 17:00 6,8 C 85 % 995,2 hPa 0,0 l/m 0,0 km/h S 4,5 C 6,8 C 0,0 km/h
10.01.2016 18:00 7,1 C 87 % 994,9 hPa 0,4 l/m 0,0 km/h S 5,1 C 7,1 C 0,0 km/h
10.01.2016 19:00 7,3 C 88 % 995,1 hPa 0,8 l/m 5,8 km/h SW 5,4 C 7,3 C 3,2 km/h
10.01.2016 20:00 7,6 C 88 % 995,7 hPa 0,0 l/m 19,4 km/h S 5,7 C 0,4 C 10,8 km/h
10.01.2016 21:00 7,5 C 84 % 996,1 hPa 0,0 l/m 9,7 km/h SW 5,0 C 5,0 C 5,4 km/h
10.01.2016 22:00 7,6 C 84 % 996,1 hPa 0,0 l/m 23,3 km/h SW 5,1 C -0,9 C 13,0 km/h
10.01.2016 23:00 7,6 C 82 % 996,4 hPa 0,0 l/m 19,4 km/h W 4,7 C 0,4 C 10,8 km/h
Min-Datum _ 08.01.16 10.01.16 04.01.16 - 04.01.16 - 08.01.16 06.01.16 04.01.16
_ Min-Zeit 08:42 13:42 04:42 - 00:42 - 08:42 10:42 00:42
Minimum _ 2,1 C 69 % 990,6 hPa - 0,0 km/h - 0,2 C -5,2 C 0,0 km/h
Max-Datum _ 10.01.16 04.01.16 08.01.16 06.01.16 04.01.16 - 09.01.16 10.01.16 04.01.16
_ Max-Zeit 13:42 08:42 07:42 10:42 06:42 - 16:42 12:42 06:42
Maximum _ 10,1 C 89 % 1005,5 hPa 2,9 l/m 34,3 km/h
W
- 7,4 C 9,6 C 19,1 km/h
W
Durchschnitt _ 6,1 C 85 % 997,5 hPa #28,2 l/m 6,2 km/h SO 3,7 C 4,0 C 3,4 km/h
www.sexauwetter.de